createdAt,value
2022-09-06T00:02:58.370Z,4.00
2022-09-06T00:06:06.893Z,3.38
2022-09-06T00:12:11.007Z,3.85
2022-09-06T00:15:13.538Z,3.22
2022-09-06T00:18:15.668Z,3.70
2022-09-06T00:21:26.726Z,3.25
2022-09-06T00:24:28.796Z,3.15
2022-09-06T00:27:31.262Z,3.90
2022-09-06T00:30:33.971Z,3.42
2022-09-06T00:33:36.024Z,3.10
2022-09-06T00:36:38.163Z,4.15
2022-09-06T00:39:40.305Z,3.40
2022-09-06T00:42:42.648Z,3.70
2022-09-06T00:45:44.875Z,3.67
2022-09-06T00:48:53.208Z,2.95
2022-09-06T00:51:59.335Z,3.08
2022-09-06T00:55:01.484Z,3.08
2022-09-06T00:58:03.905Z,3.05
2022-09-06T01:01:06.959Z,3.17
2022-09-06T01:04:09.774Z,3.40
2022-09-06T01:07:33.464Z,3.55
2022-09-06T01:10:41.443Z,2.85
2022-09-06T01:13:43.460Z,2.83
2022-09-06T01:16:51.386Z,3.22
2022-09-06T01:20:02.241Z,3.67
2022-09-06T01:23:18.971Z,3.47
2022-09-06T01:26:57.764Z,3.42
2022-09-06T01:33:41.629Z,2.83
2022-09-06T01:37:10.004Z,3.05
2022-09-06T01:40:13.017Z,3.40
2022-09-06T01:43:26.237Z,2.65
2022-09-06T01:46:58.758Z,3.50
2022-09-06T01:50:55.494Z,3.45
2022-09-06T01:54:26.962Z,3.22
2022-09-06T01:58:10.747Z,3.90
2022-09-06T02:01:43.849Z,3.05
2022-09-06T02:05:06.667Z,3.53
2022-09-06T02:08:13.342Z,3.58
2022-09-06T02:11:16.963Z,3.60
2022-09-06T02:14:29.750Z,3.25
2022-09-06T02:17:37.551Z,3.65
2022-09-06T02:20:45.391Z,3.15
2022-09-06T02:23:48.969Z,3.38
2022-09-06T02:26:51.602Z,3.42
2022-09-06T02:29:53.844Z,3.13
2022-09-06T02:33:07.338Z,3.47
2022-09-06T02:36:10.015Z,3.55
2022-09-06T02:39:12.582Z,4.07
2022-09-06T02:42:17.625Z,3.33
2022-09-06T02:45:19.804Z,3.28
2022-09-06T02:48:22.682Z,4.20
2022-09-06T02:51:24.802Z,3.63
2022-09-06T02:54:26.978Z,3.40
2022-09-06T02:57:29.069Z,3.25
2022-09-06T03:00:31.332Z,3.40
2022-09-06T03:03:33.510Z,4.10
2022-09-06T03:06:35.614Z,3.88
2022-09-06T03:09:37.773Z,2.97
2022-09-06T03:12:39.774Z,3.30
2022-09-06T03:15:41.870Z,3.38
2022-09-06T03:18:44.112Z,4.47
2022-09-06T03:21:46.188Z,3.22
2022-09-06T03:24:49.047Z,3.88
2022-09-06T03:27:51.260Z,3.65
2022-09-06T03:30:53.921Z,3.80
2022-09-06T03:33:55.907Z,3.78
2022-09-06T03:36:57.992Z,3.92
2022-09-06T03:40:00.202Z,3.47
2022-09-06T03:43:02.346Z,3.25
2022-09-06T03:46:04.641Z,5.03
2022-09-06T03:49:08.252Z,4.13
2022-09-06T03:52:10.414Z,3.83
2022-09-06T03:55:12.483Z,3.50
2022-09-06T03:58:16.252Z,3.33
2022-09-06T04:01:18.457Z,3.20
2022-09-06T04:04:20.566Z,3.67
2022-09-06T04:07:23.244Z,3.50
2022-09-06T04:10:25.262Z,4.15
2022-09-06T04:13:29.545Z,5.43
2022-09-06T04:16:31.829Z,4.18
2022-09-06T04:19:34.586Z,4.60
2022-09-06T04:22:36.721Z,3.65
2022-09-06T04:25:38.842Z,4.40
2022-09-06T04:28:40.874Z,3.95
2022-09-06T04:31:42.954Z,4.45
2022-09-06T04:34:45.005Z,4.40
2022-09-06T04:37:47.193Z,4.75
2022-09-06T04:40:49.473Z,4.35
2022-09-06T04:43:51.618Z,4.57
2022-09-06T04:47:08.794Z,4.78
2022-09-06T04:50:11.749Z,4.47
2022-09-06T04:53:13.920Z,4.20
2022-09-06T04:56:34.190Z,3.95
2022-09-06T04:59:36.541Z,4.65
2022-09-06T05:02:38.849Z,4.75
2022-09-06T05:05:41.219Z,4.90
2022-09-06T05:08:43.498Z,4.22
2022-09-06T05:11:46.517Z,4.93
2022-09-06T05:14:48.699Z,5.65
2022-09-06T05:17:50.821Z,6.38
2022-09-06T05:20:54.067Z,5.10
2022-09-06T05:23:58.645Z,5.78
2022-09-06T05:27:04.075Z,4.75
2022-09-06T05:30:06.723Z,4.50
2022-09-06T05:33:10.309Z,4.68
2022-09-06T05:36:12.398Z,4.07
2022-09-06T05:39:14.645Z,5.03
2022-09-06T05:42:19.304Z,4.35
2022-09-06T05:45:21.757Z,5.10
2022-09-06T05:48:23.888Z,6.47
2022-09-06T05:51:26.491Z,5.00
2022-09-06T05:54:28.664Z,5.38
2022-09-06T05:57:30.767Z,5.55
2022-09-06T06:00:33.200Z,5.38
2022-09-06T06:03:35.229Z,5.22
2022-09-06T06:06:37.354Z,5.15
2022-09-06T06:09:39.535Z,4.97
2022-09-06T06:12:42.171Z,5.85
2022-09-06T06:15:44.262Z,5.68
2022-09-06T06:18:51.285Z,5.55
2022-09-06T06:21:56.330Z,5.82
2022-09-06T06:24:58.454Z,5.72
2022-09-06T06:28:00.541Z,6.03
2022-09-06T06:31:07.345Z,6.38
2022-09-06T06:34:09.412Z,5.13
2022-09-06T06:37:11.456Z,5.88
2022-09-06T06:40:14.350Z,5.57
2022-09-06T06:43:16.530Z,10.85
2022-09-06T06:46:20.112Z,7.32
2022-09-06T06:49:22.233Z,5.15
2022-09-06T06:52:24.654Z,5.13
2022-09-06T06:55:26.817Z,6.88
2022-09-06T06:58:31.067Z,5.60
2022-09-06T07:01:34.630Z,6.00
2022-09-06T07:04:36.771Z,5.85
2022-09-06T07:07:40.987Z,5.82
2022-09-06T07:10:43.751Z,7.22
2022-09-06T07:13:46.139Z,5.20
2022-09-06T07:16:48.356Z,5.57
2022-09-06T07:26:36.336Z,5.25
2022-09-06T07:29:38.464Z,6.03
2022-09-06T07:32:40.724Z,7.35
2022-09-06T07:35:43.345Z,5.78
2022-09-06T07:38:49.978Z,5.22
2022-09-06T07:41:52.389Z,4.90
2022-09-06T07:44:57.898Z,5.50
2022-09-06T07:48:00.095Z,5.70
2022-09-06T07:51:10.160Z,5.03
2022-09-06T07:54:30.382Z,4.22
2022-09-06T07:57:33.017Z,3.80
2022-09-06T08:00:35.223Z,4.18
2022-09-06T08:03:37.407Z,3.90
2022-09-06T08:10:04.035Z,3.55
2022-09-06T08:13:06.205Z,3.80
2022-09-06T08:16:10.559Z,3.47
2022-09-06T08:19:12.606Z,4.25
2022-09-06T08:22:14.649Z,3.22
2022-09-06T08:25:16.703Z,2.50
2022-09-06T08:28:18.731Z,3.33
2022-09-06T08:31:20.881Z,2.83
2022-09-06T08:34:23.308Z,3.72
2022-09-06T08:37:25.677Z,2.92
2022-09-06T08:40:27.889Z,1.73
2022-09-06T08:43:30.045Z,3.20
2022-09-06T08:46:39.115Z,2.63
2022-09-06T08:50:02.564Z,2.88
2022-09-06T08:53:22.855Z,2.22
2022-09-06T08:56:35.136Z,2.40
2022-09-06T08:59:40.119Z,1.83
2022-09-06T09:02:45.602Z,1.70
2022-09-06T09:05:52.190Z,1.25
2022-09-06T09:09:03.277Z,2.03
2022-09-06T09:12:06.588Z,2.03
2022-09-06T09:15:12.829Z,1.60
2022-09-06T09:18:20.879Z,1.80
2022-09-06T09:21:30.447Z,1.80
2022-09-06T09:24:33.185Z,1.70
2022-09-06T09:27:37.245Z,2.20
2022-09-06T09:30:54.192Z,2.08
2022-09-06T09:33:56.386Z,1.60
2022-09-06T09:40:55.613Z,1.75
2022-09-06T09:44:04.449Z,1.75
2022-09-06T09:47:24.411Z,1.70
2022-09-06T09:50:32.122Z,1.42
2022-09-06T09:53:35.257Z,1.65
2022-09-06T09:56:38.908Z,1.55
2022-09-06T09:59:52.431Z,1.75
2022-09-06T10:02:58.086Z,2.15
2022-09-06T10:06:03.611Z,1.40
2022-09-06T10:09:23.256Z,1.60
2022-09-06T10:12:39.873Z,2.15
2022-09-06T10:15:43.634Z,1.80
2022-09-06T10:18:45.726Z,1.80
2022-09-06T10:21:49.058Z,2.10
2022-09-06T10:24:59.557Z,1.35
2022-09-06T10:28:12.108Z,2.00
2022-09-06T10:31:17.132Z,1.27
2022-09-06T10:34:37.682Z,1.42
2022-09-06T10:38:17.535Z,1.30
2022-09-06T10:41:53.521Z,1.52
2022-09-06T10:45:23.377Z,1.80
2022-09-06T10:48:28.611Z,1.17
2022-09-06T10:51:40.832Z,1.65
2022-09-06T10:54:47.149Z,1.60
2022-09-06T11:01:42.670Z,1.83
2022-09-06T11:08:46.625Z,1.85
2022-09-06T11:11:54.456Z,1.35
2022-09-06T11:14:56.476Z,1.17
2022-09-06T11:18:13.498Z,1.73
2022-09-06T11:21:24.613Z,1.50
2022-09-06T11:24:51.738Z,1.55
2022-09-06T11:27:58.329Z,1.92
2022-09-06T11:31:01.259Z,1.45
2022-09-06T11:34:10.479Z,1.70
2022-09-06T11:37:26.408Z,1.67
2022-09-06T11:40:36.165Z,1.80
2022-09-06T11:43:52.590Z,2.00
2022-09-06T11:46:54.853Z,1.65
2022-09-06T11:49:57.079Z,1.20
2022-09-06T11:53:06.768Z,1.58
2022-09-06T11:56:08.793Z,1.27
2022-09-06T11:59:16.858Z,1.38
2022-09-06T12:02:35.175Z,2.03
2022-09-06T12:06:17.635Z,1.48
2022-09-06T12:09:34.316Z,1.85
2022-09-06T12:12:46.774Z,2.28
2022-09-06T12:15:55.661Z,1.92
2022-09-06T12:18:58.737Z,2.20
2022-09-06T12:22:00.864Z,2.13
2022-09-06T12:25:19.237Z,1.13
2022-09-06T12:28:47.504Z,1.23
2022-09-06T12:31:55.516Z,1.55
2022-09-06T12:38:25.581Z,1.65
2022-09-06T12:41:31.891Z,1.17
2022-09-06T12:44:37.595Z,1.00
2022-09-06T12:47:42.697Z,1.33
2022-09-06T12:50:44.767Z,1.15
2022-09-06T12:53:52.310Z,1.17
2022-09-06T12:57:17.410Z,1.50
2022-09-06T13:00:20.521Z,1.10
2022-09-06T13:03:37.337Z,1.40
2022-09-06T13:06:43.047Z,1.42
2022-09-06T13:09:49.243Z,1.55
2022-09-06T13:12:53.303Z,1.88
2022-09-06T13:15:56.377Z,1.88
2022-09-06T13:19:19.319Z,1.50
2022-09-06T13:22:41.982Z,1.52
2022-09-06T13:25:52.577Z,1.35
2022-09-06T13:28:54.647Z,1.52
2022-09-06T13:31:59.370Z,1.40
2022-09-06T13:35:02.587Z,1.85
2022-09-06T13:38:40.866Z,1.10
2022-09-06T13:41:43.055Z,1.50
2022-09-06T13:44:45.412Z,1.85
2022-09-06T13:47:47.737Z,1.50
2022-09-06T13:50:49.984Z,1.60
2022-09-06T13:53:52.513Z,1.48
2022-09-06T13:56:56.145Z,1.35
2022-09-06T13:59:58.163Z,1.77
2022-09-06T14:03:00.959Z,2.08
2022-09-06T14:06:03.591Z,1.88
2022-09-06T14:09:07.797Z,1.70
2022-09-06T14:12:10.741Z,1.77
2022-09-06T14:15:13.500Z,2.08
2022-09-06T14:18:16.482Z,1.88
2022-09-06T14:21:18.850Z,1.63
2022-09-06T14:24:21.027Z,2.25
2022-09-06T14:27:23.230Z,2.25
2022-09-06T14:30:25.262Z,2.13
2022-09-06T14:33:27.335Z,1.73
2022-09-06T14:36:31.685Z,1.80
2022-09-06T14:39:34.005Z,2.35
2022-09-06T14:42:36.559Z,2.08
2022-09-06T14:45:38.976Z,2.50
2022-09-06T14:48:42.887Z,1.80
2022-09-06T14:51:46.027Z,2.10
2022-09-06T14:54:48.139Z,1.95
2022-09-06T14:57:50.678Z,2.03
2022-09-06T15:00:52.732Z,1.95
2022-09-06T15:04:00.762Z,1.52
2022-09-06T15:07:03.311Z,1.80
2022-09-06T15:10:05.840Z,2.25
2022-09-06T15:13:08.237Z,2.55
2022-09-06T15:16:11.458Z,2.40
2022-09-06T15:19:14.768Z,1.92
2022-09-06T15:22:16.975Z,1.70
2022-09-06T15:25:19.055Z,2.33
2022-09-06T15:28:21.302Z,2.00
2022-09-06T15:31:23.651Z,1.95
2022-09-06T15:34:26.937Z,2.03
2022-09-06T15:37:29.714Z,2.17
2022-09-06T15:40:31.970Z,1.70
2022-09-06T15:43:34.714Z,2.22
2022-09-06T15:46:38.584Z,2.03
2022-09-06T15:49:41.391Z,2.13
2022-09-06T15:52:43.468Z,2.83
2022-09-06T15:55:57.453Z,2.28
2022-09-06T15:59:00.142Z,1.92
2022-09-06T16:02:02.454Z,2.60
2022-09-06T16:05:05.883Z,1.50
2022-09-06T16:08:08.630Z,2.42
2022-09-06T16:11:13.538Z,2.63
2022-09-06T16:14:16.939Z,2.22
2022-09-06T16:17:19.016Z,2.28
2022-09-06T16:20:21.171Z,2.05
2022-09-06T16:23:23.385Z,2.65
2022-09-06T16:26:28.353Z,2.83
2022-09-06T16:29:31.979Z,2.60
2022-09-06T16:32:34.646Z,3.05
2022-09-06T16:35:43.154Z,2.50
2022-09-06T16:41:47.511Z,2.88
2022-09-06T16:44:49.778Z,2.53
2022-09-06T16:47:51.874Z,2.63
2022-09-06T16:50:54.127Z,2.70
2022-09-06T16:53:57.114Z,2.10
2022-09-06T16:56:59.247Z,2.30
2022-09-06T17:00:01.438Z,2.25
2022-09-06T17:03:03.514Z,2.55
2022-09-06T17:06:07.281Z,3.47
2022-09-06T17:09:09.758Z,2.97
2022-09-06T17:12:11.914Z,2.80
2022-09-06T17:15:14.085Z,2.78
2022-09-06T17:18:16.603Z,1.92
2022-09-06T17:21:18.747Z,2.70
2022-09-06T17:24:20.937Z,2.13
2022-09-06T17:27:23.945Z,2.15
2022-09-06T17:30:26.785Z,2.45
2022-09-06T17:33:30.611Z,2.30
2022-09-06T17:36:33.587Z,2.45
2022-09-06T17:39:36.026Z,2.67
2022-09-06T17:42:38.202Z,3.30
2022-09-06T17:45:45.399Z,3.15
2022-09-06T17:48:49.286Z,2.25
2022-09-06T17:51:52.288Z,2.83
2022-09-06T17:54:55.181Z,2.50
2022-09-06T17:57:57.646Z,2.65
2022-09-06T18:01:08.057Z,3.05
2022-09-06T18:04:11.526Z,3.28
2022-09-06T18:07:13.844Z,3.38
2022-09-06T18:10:17.833Z,3.72
2022-09-06T18:13:20.023Z,3.65
2022-09-06T18:16:22.118Z,2.50
2022-09-06T18:19:24.877Z,3.20
2022-09-06T18:22:26.878Z,3.63
2022-09-06T18:25:29.268Z,3.22
2022-09-06T18:28:32.831Z,3.40
2022-09-06T18:31:35.108Z,3.47
2022-09-06T18:34:37.269Z,3.63
2022-09-06T18:37:39.400Z,3.70
2022-09-06T18:40:53.992Z,6.00
2022-09-06T18:43:56.873Z,4.50
2022-09-06T18:47:01.405Z,3.72
2022-09-06T18:50:05.066Z,3.80
2022-09-06T18:53:07.449Z,3.47
2022-09-06T18:56:11.490Z,3.58
2022-09-06T18:59:14.728Z,2.88
2022-09-06T19:02:16.950Z,3.88
2022-09-06T19:05:19.174Z,3.28
2022-09-06T19:08:21.221Z,3.67
2022-09-06T19:11:23.418Z,2.58
2022-09-06T19:14:25.911Z,2.55
2022-09-06T19:17:28.064Z,3.20
2022-09-06T19:20:30.264Z,3.70
2022-09-06T19:23:34.561Z,4.05
2022-09-06T19:26:44.321Z,5.13
2022-09-06T19:29:47.208Z,5.38
2022-09-06T19:32:49.348Z,4.05
2022-09-06T19:36:10.529Z,3.72
2022-09-06T19:39:16.549Z,3.50
2022-09-06T19:42:19.318Z,3.58
2022-09-06T19:45:21.689Z,3.60
2022-09-06T19:48:24.108Z,4.07
2022-09-06T19:51:26.282Z,4.72
2022-09-06T19:54:28.423Z,4.00
2022-09-06T19:57:30.545Z,4.50
2022-09-06T20:00:35.559Z,3.88
2022-09-06T20:03:39.208Z,3.92
2022-09-06T20:06:41.749Z,3.25
2022-09-06T20:09:43.910Z,3.95
2022-09-06T20:12:46.241Z,3.40
2022-09-06T20:15:49.364Z,3.42
2022-09-06T20:18:52.561Z,3.55
2022-09-06T20:21:54.947Z,3.60
2022-09-06T20:24:57.048Z,3.50
2022-09-06T20:27:59.247Z,2.88
2022-09-06T20:31:03.680Z,3.20
2022-09-06T20:34:07.530Z,2.65
2022-09-06T20:37:09.675Z,2.85
2022-09-06T20:40:13.163Z,2.55
2022-09-06T20:43:15.370Z,2.67
2022-09-06T20:46:20.907Z,2.83
2022-09-06T20:49:23.282Z,2.90
2022-09-06T20:52:25.391Z,3.35
2022-09-06T20:55:27.523Z,2.75
2022-09-06T20:58:30.866Z,3.80
2022-09-06T21:01:36.019Z,3.20
2022-09-06T21:04:38.194Z,3.35
2022-09-06T21:07:40.296Z,3.65
2022-09-06T21:10:43.102Z,3.55
2022-09-06T21:13:51.082Z,3.45
2022-09-06T21:16:53.288Z,3.70
2022-09-06T21:19:55.572Z,3.50
2022-09-06T21:22:57.871Z,3.30
2022-09-06T21:26:06.023Z,3.20
2022-09-06T21:29:08.161Z,4.05
2022-09-06T21:32:10.251Z,3.25
2022-09-06T21:35:12.380Z,3.25
2022-09-06T21:38:14.859Z,2.70
2022-09-06T21:41:18.522Z,2.75
2022-09-06T21:44:20.707Z,2.60
2022-09-06T21:47:22.887Z,2.42
2022-09-06T21:50:25.081Z,2.55
2022-09-06T21:53:27.328Z,2.40
2022-09-06T21:56:29.622Z,2.78
2022-09-06T21:59:31.726Z,2.40
2022-09-06T22:02:33.962Z,2.90
2022-09-06T22:05:36.240Z,2.28
2022-09-06T22:08:39.145Z,2.25
2022-09-06T22:11:44.189Z,2.03
2022-09-06T22:14:47.667Z,1.88
2022-09-06T22:17:49.702Z,2.17
2022-09-06T22:21:00.408Z,2.38
2022-09-06T22:24:04.653Z,2.17
2022-09-06T22:27:06.629Z,1.45
2022-09-06T22:30:09.464Z,1.92
2022-09-06T22:33:11.537Z,1.75
2022-09-06T22:36:13.741Z,1.85
2022-09-06T22:39:15.833Z,1.70
2022-09-06T22:42:17.946Z,1.70
2022-09-06T22:45:20.028Z,1.30
2022-09-06T22:48:22.526Z,2.08
2022-09-06T22:51:24.803Z,1.80
2022-09-06T22:54:26.755Z,2.33
2022-09-06T22:57:28.890Z,1.73
2022-09-06T23:00:31.771Z,1.63
2022-09-06T23:03:35.444Z,1.40
2022-09-06T23:06:37.938Z,1.42
2022-09-06T23:09:40.068Z,1.25
2022-09-06T23:12:42.504Z,2.00
2022-09-06T23:15:47.977Z,1.20
2022-09-06T23:18:50.556Z,1.63
2022-09-06T23:21:52.564Z,1.67
2022-09-06T23:24:54.688Z,1.58
2022-09-06T23:27:59.549Z,1.20
2022-09-06T23:31:06.318Z,1.60
2022-09-06T23:34:08.441Z,1.67
2022-09-06T23:37:10.752Z,1.73
2022-09-06T23:40:13.434Z,1.20
2022-09-06T23:43:15.591Z,1.95
2022-09-06T23:46:17.826Z,1.70
2022-09-06T23:49:20.028Z,1.55
2022-09-06T23:52:22.114Z,1.73
2022-09-06T23:55:24.280Z,1.45
2022-09-06T23:58:26.607Z,1.63
